createdAt,value
2018-09-13T00:01:25.969Z,1.47
2018-09-13T00:03:57.088Z,1.10
2018-09-13T00:06:28.004Z,1.33
2018-09-13T00:08:58.988Z,1.47
2018-09-13T00:11:29.930Z,1.10
2018-09-13T00:14:00.909Z,1.13
2018-09-13T00:16:31.840Z,1.27
2018-09-13T00:19:02.832Z,1.60
2018-09-13T00:21:33.769Z,1.57
2018-09-13T00:24:04.725Z,1.70
2018-09-13T00:26:35.686Z,1.40
2018-09-13T00:29:06.656Z,1.70
2018-09-13T00:31:37.634Z,1.60
2018-09-13T00:34:08.641Z,1.23
2018-09-13T00:36:39.588Z,1.53
2018-09-13T00:39:10.549Z,1.40
2018-09-13T00:41:41.489Z,1.60
2018-09-13T00:44:12.428Z,1.40
2018-09-13T00:46:43.377Z,1.20
2018-09-13T00:49:14.311Z,1.27
2018-09-13T00:51:45.255Z,1.13
2018-09-13T00:54:16.197Z,1.37
2018-09-13T00:56:47.266Z,1.17
2018-09-13T00:59:18.184Z,1.40
2018-09-13T01:01:49.152Z,1.00
2018-09-13T01:04:20.082Z,1.40
2018-09-13T01:06:51.180Z,1.30
2018-09-13T01:09:22.124Z,1.20
2018-09-13T01:11:53.062Z,1.10
2018-09-13T01:14:24.002Z,1.20
2018-09-13T01:16:54.960Z,1.60
2018-09-13T01:19:25.951Z,1.03
2018-09-13T01:21:56.893Z,1.47
2018-09-13T01:24:27.822Z,1.20
2018-09-13T01:26:58.774Z,1.30
2018-09-13T01:29:29.721Z,1.90
2018-09-13T01:32:00.666Z,1.10
2018-09-13T01:34:31.608Z,1.30
2018-09-13T01:37:02.580Z,1.50
2018-09-13T01:39:33.513Z,1.20
2018-09-13T01:42:04.514Z,1.70
2018-09-13T01:44:35.444Z,1.20
2018-09-13T01:47:06.380Z,1.83
2018-09-13T01:49:37.435Z,1.40
2018-09-13T01:52:08.584Z,1.10
2018-09-13T01:54:39.604Z,1.40
2018-09-13T01:57:10.534Z,1.50
2018-09-13T01:59:41.466Z,1.50
2018-09-13T02:02:12.396Z,1.50
2018-09-13T02:04:43.341Z,1.10
2018-09-13T02:07:14.289Z,1.37
2018-09-13T02:09:45.263Z,1.03
2018-09-13T02:12:16.189Z,1.63
2018-09-13T02:14:47.157Z,1.20
2018-09-13T02:17:18.160Z,1.40
2018-09-13T02:19:49.119Z,1.33
2018-09-13T02:22:20.045Z,1.53
2018-09-13T02:24:51.004Z,1.43
2018-09-13T02:27:21.940Z,1.40
2018-09-13T02:29:52.880Z,1.33
2018-09-13T02:32:23.963Z,1.53
2018-09-13T02:34:54.945Z,1.50
2018-09-13T02:37:25.863Z,1.47
2018-09-13T02:39:56.829Z,1.40
2018-09-13T02:42:27.901Z,1.50
2018-09-13T02:44:58.845Z,1.40
2018-09-13T02:47:29.774Z,1.10
2018-09-13T02:50:00.727Z,1.17
2018-09-13T02:52:31.678Z,1.20
2018-09-13T02:55:02.612Z,1.40
2018-09-13T02:57:33.548Z,1.30
2018-09-13T03:00:04.555Z,1.23
2018-09-13T03:02:35.561Z,1.13
2018-09-13T03:05:06.504Z,1.33
2018-09-13T03:07:37.458Z,1.70
2018-09-13T03:10:08.438Z,1.20
2018-09-13T03:12:39.386Z,1.47
2018-09-13T03:15:10.365Z,1.33
2018-09-13T03:17:41.341Z,1.40
2018-09-13T03:20:12.313Z,1.53
2018-09-13T03:22:43.247Z,1.43
2018-09-13T03:25:14.176Z,1.33
2018-09-13T03:27:45.157Z,1.17
2018-09-13T03:30:16.461Z,1.70
2018-09-13T03:32:47.389Z,1.13
2018-09-13T03:35:18.329Z,1.47
2018-09-13T03:37:49.273Z,1.43
2018-09-13T03:40:20.289Z,1.37
2018-09-13T03:42:51.221Z,1.83
2018-09-13T03:45:22.186Z,1.40
2018-09-13T03:47:53.117Z,1.20
2018-09-13T03:50:24.070Z,1.47
2018-09-13T03:52:55.015Z,1.17
2018-09-13T03:55:25.961Z,1.47
2018-09-13T03:57:56.879Z,1.50
2018-09-13T04:00:27.798Z,1.67
2018-09-13T04:02:58.754Z,1.27
2018-09-13T04:05:29.701Z,1.23
2018-09-13T04:08:00.745Z,1.27
2018-09-13T04:10:31.693Z,1.53
2018-09-13T04:13:02.675Z,1.17
2018-09-13T04:15:33.660Z,1.20
2018-09-13T04:18:04.604Z,1.40
2018-09-13T04:20:35.537Z,1.70
2018-09-13T04:23:06.670Z,1.30
2018-09-13T04:25:37.588Z,1.27
2018-09-13T04:28:08.551Z,1.47
2018-09-13T04:30:39.493Z,1.47
2018-09-13T04:33:10.446Z,1.47
2018-09-13T04:35:41.501Z,1.40
2018-09-13T04:38:12.377Z,1.30
2018-09-13T04:40:43.305Z,1.53
2018-09-13T04:43:14.392Z,1.17
2018-09-13T04:45:45.764Z,1.10
2018-09-13T04:48:16.861Z,1.40
2018-09-13T04:50:47.869Z,1.13
2018-09-13T04:53:18.789Z,1.53
2018-09-13T04:55:49.757Z,1.60
2018-09-13T04:58:20.765Z,1.03
2018-09-13T05:00:51.770Z,1.30
2018-09-13T05:03:22.693Z,1.40
2018-09-13T05:05:53.633Z,1.60
2018-09-13T05:08:24.577Z,1.63
2018-09-13T05:10:55.606Z,2.00
2018-09-13T05:13:26.524Z,1.20
2018-09-13T05:15:57.575Z,1.50
2018-09-13T05:18:28.512Z,1.40
2018-09-13T05:20:59.432Z,1.47
2018-09-13T05:23:30.363Z,1.33
2018-09-13T05:26:01.301Z,1.60
2018-09-13T05:28:32.296Z,1.33
2018-09-13T05:31:03.248Z,1.70
2018-09-13T05:33:34.173Z,1.30
2018-09-13T05:36:05.114Z,1.60
2018-09-13T05:38:36.052Z,1.60
2018-09-13T05:41:07.065Z,1.70
2018-09-13T05:43:38.027Z,1.40
2018-09-13T05:46:09.046Z,1.47
2018-09-13T05:48:39.982Z,1.37
2018-09-13T05:51:10.917Z,4.27
2018-09-13T05:53:41.928Z,3.13
2018-09-13T05:56:13.070Z,3.90
2018-09-13T05:58:44.025Z,3.70
2018-09-13T06:01:15.036Z,3.37
2018-09-13T06:03:45.988Z,2.60
2018-09-13T06:06:16.946Z,2.50
2018-09-13T06:08:47.967Z,2.00
2018-09-13T06:11:18.962Z,2.87
2018-09-13T06:13:50.274Z,2.67
2018-09-13T06:16:21.238Z,2.70
2018-09-13T06:18:52.165Z,2.40
2018-09-13T06:21:23.084Z,2.63
2018-09-13T06:23:54.021Z,2.90
2018-09-13T06:26:25.129Z,3.60
2018-09-13T06:28:56.177Z,2.97
2018-09-13T06:31:27.122Z,3.80
2018-09-13T06:33:58.217Z,3.97
2018-09-13T06:36:29.179Z,3.63
2018-09-13T06:39:00.100Z,3.33
2018-09-13T06:41:31.061Z,3.67
2018-09-13T06:44:02.006Z,3.40
2018-09-13T06:46:32.946Z,3.03
2018-09-13T06:49:03.960Z,3.47
2018-09-13T06:51:34.901Z,3.80
2018-09-13T06:54:05.903Z,3.50
2018-09-13T06:56:36.810Z,3.20
2018-09-13T06:59:07.761Z,3.40
2018-09-13T07:01:38.763Z,3.13
2018-09-13T07:04:09.693Z,3.53
2018-09-13T07:06:40.840Z,3.50
2018-09-13T07:09:13.604Z,3.07
2018-09-13T07:11:44.914Z,2.87
2018-09-13T07:14:15.844Z,2.80
2018-09-13T07:16:46.782Z,2.90
2018-09-13T07:19:17.708Z,3.30
2018-09-13T07:21:48.653Z,2.60
2018-09-13T07:24:19.598Z,2.60
2018-09-13T07:26:50.529Z,2.60
2018-09-13T07:29:21.481Z,2.70
2018-09-13T07:31:52.404Z,3.00
2018-09-13T07:34:23.366Z,2.70
2018-09-13T07:36:54.512Z,2.20
2018-09-13T07:39:25.285Z,2.47
2018-09-13T07:41:56.268Z,2.63
2018-09-13T07:44:27.252Z,2.43
2018-09-13T07:46:58.223Z,2.70
2018-09-13T07:49:29.216Z,2.23
2018-09-13T07:52:00.127Z,2.27
2018-09-13T07:54:31.094Z,2.60
2018-09-13T07:57:02.062Z,2.37
2018-09-13T07:59:33.008Z,2.00
2018-09-13T08:02:03.952Z,2.20
2018-09-13T08:04:34.894Z,1.67
2018-09-13T08:07:05.841Z,2.20
2018-09-13T08:09:36.773Z,2.43
2018-09-13T08:12:07.757Z,2.27
2018-09-13T08:14:38.862Z,1.90
2018-09-13T08:17:09.806Z,1.90
2018-09-13T08:19:40.824Z,1.87
2018-09-13T08:22:11.808Z,2.13
2018-09-13T08:24:42.689Z,1.87
2018-09-13T08:27:13.732Z,1.83
2018-09-13T08:29:44.601Z,2.10
2018-09-13T08:32:15.553Z,1.90
2018-09-13T08:34:46.499Z,1.60
2018-09-13T08:37:17.439Z,1.97
2018-09-13T08:39:48.369Z,1.83
2018-09-13T08:42:19.396Z,2.13
2018-09-13T08:44:50.536Z,1.80
2018-09-13T08:47:21.464Z,1.77
2018-09-13T08:49:52.396Z,2.03
2018-09-13T08:52:23.329Z,1.60
2018-09-13T08:54:54.269Z,1.60
2018-09-13T08:57:25.315Z,2.07
2018-09-13T08:59:56.244Z,1.67
2018-09-13T09:02:27.197Z,1.80
2018-09-13T09:04:58.154Z,1.70
2018-09-13T09:07:29.085Z,2.10
2018-09-13T09:10:00.057Z,2.03
2018-09-13T09:12:31.011Z,1.70
2018-09-13T09:15:01.984Z,1.87
2018-09-13T09:17:33.054Z,1.30
2018-09-13T09:20:03.987Z,1.80
2018-09-13T09:22:34.933Z,1.30
2018-09-13T09:25:05.955Z,1.33
2018-09-13T09:27:36.868Z,1.80
2018-09-13T09:30:07.801Z,1.40
2018-09-13T09:32:38.746Z,1.60
2018-09-13T09:35:09.748Z,1.53
2018-09-13T09:37:40.645Z,1.17
2018-09-13T09:40:11.572Z,1.67
2018-09-13T09:42:42.504Z,1.47
2018-09-13T09:45:13.447Z,1.40
2018-09-13T09:47:44.368Z,1.07
2018-09-13T09:50:15.327Z,1.30
2018-09-13T09:52:46.239Z,1.40
2018-09-13T09:55:21.230Z,1.30
2018-09-13T09:57:52.791Z,1.40
2018-09-13T10:00:29.506Z,1.30
2018-09-13T10:03:00.496Z,1.40
2018-09-13T10:05:31.424Z,1.23
2018-09-13T10:08:02.332Z,1.30
2018-09-13T10:10:33.262Z,1.10
2018-09-13T10:13:04.218Z,1.63
2018-09-13T10:15:40.898Z,1.50
2018-09-13T10:18:17.581Z,1.30
2018-09-13T10:20:54.289Z,1.60
2018-09-13T10:23:31.034Z,1.43
2018-09-13T10:26:07.711Z,1.37
2018-09-13T10:28:44.364Z,1.30
2018-09-13T10:31:21.125Z,1.63
2018-09-13T10:33:57.950Z,1.60
2018-09-13T10:36:34.574Z,1.67
2018-09-13T10:39:11.389Z,1.43
2018-09-13T10:41:48.125Z,1.50
2018-09-13T10:44:25.016Z,1.77
2018-09-13T10:47:01.917Z,1.57
2018-09-13T10:49:38.690Z,1.47
2018-09-13T10:52:18.045Z,1.27
2018-09-13T10:54:48.979Z,1.50
2018-09-13T10:57:25.751Z,1.90
2018-09-13T10:59:56.702Z,1.37
2018-09-13T11:02:27.658Z,1.73
2018-09-13T11:04:58.676Z,1.60
2018-09-13T11:07:29.608Z,1.40
2018-09-13T11:10:00.566Z,1.30
2018-09-13T11:12:38.330Z,1.40
2018-09-13T11:15:19.377Z,1.20
2018-09-13T11:17:50.314Z,1.30
2018-09-13T11:20:21.266Z,1.70
2018-09-13T11:22:53.562Z,1.10
2018-09-13T11:25:24.922Z,2.10
2018-09-13T11:27:55.926Z,1.73
2018-09-13T11:30:26.936Z,1.63
2018-09-13T11:32:57.853Z,1.90
2018-09-13T11:35:28.794Z,1.30
2018-09-13T11:37:59.723Z,1.40
2018-09-13T11:40:30.849Z,1.50
2018-09-13T11:43:01.658Z,1.37
2018-09-13T11:45:32.602Z,1.70
2018-09-13T11:48:03.532Z,1.67
2018-09-13T11:50:34.483Z,2.00
2018-09-13T11:53:05.431Z,1.90
2018-09-13T11:55:41.010Z,1.47
2018-09-13T11:58:13.557Z,2.00
2018-09-13T12:00:44.594Z,1.60
2018-09-13T12:03:15.505Z,1.67
2018-09-13T12:05:46.472Z,1.43
2018-09-13T12:08:17.414Z,1.73
2018-09-13T12:10:48.364Z,2.30
2018-09-13T12:13:19.429Z,2.13
2018-09-13T12:15:50.612Z,2.30
2018-09-13T12:18:21.561Z,2.07
2018-09-13T12:20:52.496Z,2.17
2018-09-13T12:23:23.432Z,1.80
2018-09-13T12:25:54.395Z,2.03
2018-09-13T12:28:25.576Z,1.80
2018-09-13T12:30:56.501Z,1.73
2018-09-13T12:33:27.764Z,1.87
2018-09-13T12:35:58.697Z,1.63
2018-09-13T12:38:29.642Z,1.87
2018-09-13T12:41:00.681Z,2.10
2018-09-13T12:43:31.606Z,2.00
2018-09-13T12:46:02.556Z,1.87
2018-09-13T12:48:33.498Z,1.77
2018-09-13T12:51:04.449Z,1.83
2018-09-13T12:53:35.415Z,2.00
2018-09-13T12:56:06.372Z,1.80
2018-09-13T12:58:37.304Z,1.77
2018-09-13T13:01:08.257Z,1.97
2018-09-13T13:03:39.193Z,2.03
2018-09-13T13:06:10.150Z,1.67
2018-09-13T13:08:42.084Z,1.53
2018-09-13T13:11:13.001Z,2.30
2018-09-13T13:13:43.932Z,2.23
2018-09-13T13:16:14.874Z,1.80
2018-09-13T13:18:45.821Z,2.03
2018-09-13T13:21:16.761Z,2.17
2018-09-13T13:23:47.698Z,2.20
2018-09-13T13:26:18.649Z,1.63
2018-09-13T13:28:49.654Z,1.77
2018-09-13T13:31:20.637Z,1.70
2018-09-13T13:33:51.556Z,2.30
2018-09-13T13:36:22.754Z,1.73
2018-09-13T13:38:53.609Z,1.70
2018-09-13T13:41:24.568Z,1.73
2018-09-13T13:43:55.519Z,2.20
2018-09-13T13:46:26.470Z,1.77
2018-09-13T13:48:57.433Z,2.00
2018-09-13T13:51:28.614Z,1.80
2018-09-13T13:53:59.558Z,1.70
2018-09-13T13:56:30.500Z,1.90
2018-09-13T13:59:01.421Z,2.00
2018-09-13T14:01:32.374Z,1.97
2018-09-13T14:04:03.317Z,1.93
2018-09-13T14:06:34.273Z,1.73
2018-09-13T14:09:05.217Z,1.87
2018-09-13T14:11:36.154Z,2.00
2018-09-13T14:14:07.090Z,2.77
2018-09-13T14:16:38.276Z,2.43
2018-09-13T14:19:09.218Z,2.00
2018-09-13T14:21:40.141Z,2.40
2018-09-13T14:24:11.176Z,1.90
2018-09-13T14:26:42.123Z,2.37
2018-09-13T14:29:13.092Z,2.10
2018-09-13T14:31:44.072Z,2.10
2018-09-13T14:34:15.322Z,2.40
2018-09-13T14:36:46.233Z,2.27
2018-09-13T14:39:17.164Z,2.17
2018-09-13T14:41:48.103Z,2.30
2018-09-13T14:44:19.037Z,2.10
2018-09-13T14:46:49.968Z,2.13
2018-09-13T14:49:20.919Z,2.03
2018-09-13T14:51:51.915Z,2.27
2018-09-13T14:54:22.857Z,2.07
2018-09-13T14:56:53.801Z,1.57
2018-09-13T14:59:24.760Z,2.17
2018-09-13T15:01:55.689Z,2.23
2018-09-13T15:04:26.824Z,2.10
2018-09-13T15:06:57.775Z,2.10
2018-09-13T15:09:28.706Z,2.90
2018-09-13T15:11:59.677Z,2.20
2018-09-13T15:14:30.612Z,1.90
2018-09-13T15:17:01.566Z,2.50
2018-09-13T15:19:32.666Z,2.20
2018-09-13T15:22:03.609Z,2.57
2018-09-13T15:24:34.761Z,2.20
2018-09-13T15:27:05.694Z,1.80
2018-09-13T15:29:36.635Z,2.17
2018-09-13T15:32:07.676Z,2.37
2018-09-13T15:34:38.703Z,1.90
2018-09-13T15:37:09.710Z,2.13
2018-09-13T15:39:40.581Z,2.27
2018-09-13T15:42:11.513Z,2.40
2018-09-13T15:44:42.484Z,2.20
2018-09-13T15:47:13.497Z,1.80
2018-09-13T15:49:44.426Z,1.90
2018-09-13T15:52:15.377Z,2.00
2018-09-13T15:54:46.337Z,1.93
2018-09-13T15:57:17.357Z,2.00
2018-09-13T15:59:48.273Z,2.70
2018-09-13T16:02:19.280Z,2.30
2018-09-13T16:04:50.208Z,2.40
2018-09-13T16:07:21.149Z,2.40
2018-09-13T16:09:52.076Z,2.20
2018-09-13T16:12:23.138Z,2.60
2018-09-13T16:14:54.041Z,2.17
2018-09-13T16:17:25.013Z,2.50
2018-09-13T16:19:56.032Z,2.53
2018-09-13T16:22:27.044Z,2.37
2018-09-13T16:24:58.019Z,1.93
2018-09-13T16:27:29.066Z,2.37
2018-09-13T16:29:59.993Z,2.50
2018-09-13T16:32:31.066Z,2.30
2018-09-13T16:35:02.101Z,2.50
2018-09-13T16:37:38.653Z,2.07
2018-09-13T16:40:15.393Z,3.00
2018-09-13T16:42:52.041Z,2.73
2018-09-13T16:45:31.033Z,2.03
2018-09-13T16:48:03.420Z,2.23
2018-09-13T16:50:34.350Z,2.60
2018-09-13T16:53:05.312Z,2.20
2018-09-13T16:55:36.225Z,2.50
2018-09-13T16:58:07.162Z,2.40
2018-09-13T17:00:38.206Z,2.30
2018-09-13T17:03:09.143Z,2.50
2018-09-13T17:05:40.113Z,2.70
2018-09-13T17:08:11.105Z,2.07
2018-09-13T17:10:42.042Z,2.50
2018-09-13T17:13:13.058Z,2.57
2018-09-13T17:15:43.958Z,2.20
2018-09-13T17:18:14.900Z,2.10
2018-09-13T17:20:45.900Z,2.10
2018-09-13T17:23:16.829Z,2.60
2018-09-13T17:25:47.768Z,2.20
2018-09-13T17:28:18.715Z,1.90
2018-09-13T17:30:49.686Z,2.60
2018-09-13T17:33:20.622Z,2.20
2018-09-13T17:35:51.569Z,2.53
2018-09-13T17:38:22.512Z,2.47
2018-09-13T17:40:53.461Z,2.23
2018-09-13T17:43:24.443Z,2.40
2018-09-13T17:45:55.376Z,1.97
2018-09-13T17:48:26.321Z,2.30
2018-09-13T17:50:57.249Z,2.27
2018-09-13T17:53:28.185Z,2.80
2018-09-13T17:55:59.138Z,1.90
2018-09-13T17:58:30.096Z,2.10
2018-09-13T18:01:01.066Z,2.10
2018-09-13T18:03:32.084Z,2.30
2018-09-13T18:06:03.001Z,2.23
2018-09-13T18:08:34.036Z,2.30
2018-09-13T18:11:04.987Z,2.40
2018-09-13T18:13:35.937Z,2.10
2018-09-13T18:16:06.920Z,2.30
2018-09-13T18:18:37.869Z,2.53
2018-09-13T18:21:08.958Z,3.07
2018-09-13T18:23:40.082Z,2.37
2018-09-13T18:26:11.023Z,2.60
2018-09-13T18:28:41.986Z,2.57
2018-09-13T18:31:12.927Z,2.37
2018-09-13T18:33:43.875Z,2.57
2018-09-13T18:36:15.721Z,2.37
2018-09-13T18:38:46.769Z,2.50
2018-09-13T18:41:17.802Z,3.07
2018-09-13T18:43:48.741Z,2.63
2018-09-13T18:46:19.693Z,2.00
2018-09-13T18:48:50.664Z,2.60
2018-09-13T18:51:21.624Z,2.60
2018-09-13T18:53:52.770Z,2.43
2018-09-13T18:56:23.646Z,2.13
2018-09-13T18:58:54.581Z,2.37
2018-09-13T19:01:25.546Z,2.67
2018-09-13T19:03:56.485Z,2.60
2018-09-13T19:06:27.491Z,2.50
2018-09-13T19:08:58.441Z,2.27
2018-09-13T19:11:29.450Z,3.13
2018-09-13T19:14:00.330Z,2.50
2018-09-13T19:16:31.364Z,1.93
2018-09-13T19:19:02.396Z,2.40
2018-09-13T19:21:33.340Z,2.33
2018-09-13T19:24:04.291Z,2.20
2018-09-13T19:26:35.306Z,2.10
2018-09-13T19:29:06.242Z,2.90
2018-09-13T19:31:37.196Z,2.73
2018-09-13T19:34:08.300Z,2.53
2018-09-13T19:36:39.328Z,2.73
2018-09-13T19:39:11.666Z,2.20
2018-09-13T19:41:43.031Z,3.07
2018-09-13T19:44:14.009Z,2.03
2018-09-13T19:46:44.975Z,2.70
2018-09-13T19:49:15.918Z,2.90
2018-09-13T19:51:46.927Z,2.50
2018-09-13T19:54:17.868Z,2.97
2018-09-13T19:56:48.921Z,2.60
2018-09-13T19:59:19.862Z,2.07
2018-09-13T20:01:50.802Z,2.13
2018-09-13T20:04:21.823Z,2.67
2018-09-13T20:06:52.756Z,2.13
2018-09-13T20:09:23.701Z,2.13
2018-09-13T20:11:54.699Z,3.03
2018-09-13T20:14:25.647Z,2.20
2018-09-13T20:16:56.639Z,2.50
2018-09-13T20:19:27.609Z,2.40
2018-09-13T20:21:58.558Z,3.17
2018-09-13T20:24:29.537Z,3.03
2018-09-13T20:27:00.461Z,2.27
2018-09-13T20:29:31.395Z,2.47
2018-09-13T20:32:02.334Z,3.17
2018-09-13T20:34:33.301Z,2.97
2018-09-13T20:37:04.290Z,2.63
2018-09-13T20:39:35.235Z,2.13
2018-09-13T20:42:06.193Z,2.60
2018-09-13T20:44:37.137Z,1.73
2018-09-13T20:47:08.093Z,2.23
2018-09-13T20:49:39.052Z,2.30
2018-09-13T20:52:10.113Z,2.57
2018-09-13T20:54:41.110Z,2.30
2018-09-13T20:57:12.060Z,2.70
2018-09-13T20:59:43.006Z,2.87
2018-09-13T21:02:13.933Z,2.50
2018-09-13T21:04:44.880Z,2.30
2018-09-13T21:07:15.942Z,2.27
2018-09-13T21:09:46.972Z,2.63
2018-09-13T21:12:17.929Z,2.47
2018-09-13T21:14:48.893Z,2.23
2018-09-13T21:17:19.846Z,2.57
2018-09-13T21:19:50.782Z,2.40
2018-09-13T21:22:21.746Z,2.07
2018-09-13T21:24:52.686Z,2.33
2018-09-13T21:27:23.614Z,2.20
2018-09-13T21:29:55.005Z,2.20
2018-09-13T21:32:26.353Z,2.20
2018-09-13T21:34:57.290Z,2.10
2018-09-13T21:37:28.229Z,2.13
2018-09-13T21:39:59.168Z,2.17
2018-09-13T21:42:30.117Z,2.03
2018-09-13T21:45:01.065Z,2.70
2018-09-13T21:47:31.988Z,1.97
2018-09-13T21:50:02.932Z,1.83
2018-09-13T21:52:33.869Z,1.90
2018-09-13T21:55:05.246Z,1.80
2018-09-13T21:57:36.177Z,2.00
2018-09-13T22:00:07.116Z,2.00
2018-09-13T22:02:38.276Z,1.60
2018-09-13T22:05:09.238Z,1.60
2018-09-13T22:07:40.179Z,2.07
2018-09-13T22:10:11.116Z,2.00
2018-09-13T22:12:42.061Z,2.03
2018-09-13T22:15:12.997Z,2.00
2018-09-13T22:17:43.937Z,1.90
2018-09-13T22:20:14.877Z,1.40
2018-09-13T22:22:45.813Z,1.50
2018-09-13T22:25:16.745Z,1.53
2018-09-13T22:27:47.756Z,2.00
2018-09-13T22:30:18.689Z,1.53
2018-09-13T22:32:49.647Z,1.90
2018-09-13T22:35:20.600Z,1.63
2018-09-13T22:37:51.555Z,1.50
2018-09-13T22:40:22.574Z,1.33
2018-09-13T22:42:53.526Z,1.40
2018-09-13T22:45:24.572Z,1.37
2018-09-13T22:47:55.517Z,1.47
2018-09-13T22:50:26.538Z,1.23
2018-09-13T22:52:57.477Z,1.57
2018-09-13T22:55:28.427Z,1.37
2018-09-13T22:57:59.462Z,1.63
2018-09-13T23:00:30.397Z,0.87
2018-09-13T23:03:01.335Z,1.10
2018-09-13T23:05:32.311Z,1.43
2018-09-13T23:08:03.270Z,1.40
2018-09-13T23:10:34.274Z,1.10
2018-09-13T23:13:05.207Z,1.20
2018-09-13T23:15:36.158Z,1.37
2018-09-13T23:18:07.137Z,1.13
2018-09-13T23:20:38.094Z,1.17
2018-09-13T23:23:09.038Z,1.30
2018-09-13T23:25:39.974Z,1.57
2018-09-13T23:28:11.065Z,1.10
2018-09-13T23:30:42.007Z,1.30
2018-09-13T23:33:13.030Z,1.43
2018-09-13T23:35:43.958Z,1.00
2018-09-13T23:38:14.896Z,0.97
2018-09-13T23:40:45.937Z,1.17
2018-09-13T23:43:16.797Z,1.00
2018-09-13T23:45:47.744Z,1.10
2018-09-13T23:48:18.766Z,1.00
2018-09-13T23:50:49.688Z,1.27
2018-09-13T23:53:20.636Z,1.37
2018-09-13T23:55:51.573Z,1.10
2018-09-13T23:58:22.540Z,0.80
